PWSweather.com
Personal Weather Stations
Station Observations
GEELONGWX1
Bell Post Hill, GeelongAU

Bell Post HillGeelongAU

Lat: -38.101, Lon: 144.326

Elevation: 204

Station Type: Davis Vantage Pro2

http://www.geelongweather.com

High Low Average
Temperature 92.7°F33.7°F 62.2°F16.8°F 76.9°F24.9°F
Dew Point 67.7°F19.8°F 45.6°F7.6°F 56.6°F13.7°F
Winds 9.2 mph NE14.8 mph NE Calm Calm 2.7 mph 4.3 mph
Wind Gusts 15.0 mph24.1 mph -- 4.2 mph6.8 mph
Humidity 86% 20% 55%
Pressure 30.09 in1019.00 in 29.95 in1014.20 in -
Precipitation 0.00 in0.00 in - -
Hour Temp Dew Point Humidity Winds Wind Gusts Pressure Precip Precip Rate Daily Precip Total
12:00 AM 72.0°F22.2°C 60.0°F15.6°C 66% Calm Calm -- 30.09 in1019.0 mb - 0.00 in0.0 mm 0.00 in0.0 mm
12:10 AM 71.5°F21.9°C 60.4°F15.8°C 68% Calm Calm -- 30.08 in1018.6 mb - 0.00 in0.0 mm 0.00 in0.0 mm
12:20 AM 71.1°F21.7°C 60.0°F15.6°C 68% Calm Calm 2.3 mph3.7 kmh 30.08 in1018.6 mb - 0.00 in0.0 mm 0.00 in0.0 mm
12:30 AM 70.6°F21.4°C 60.0°F15.6°C 69% Calm Calm -- 30.08 in1018.6 mb - 0.00 in0.0 mm 0.00 in0.0 mm
12:40 AM 70.2°F21.2°C 59.6°F15.3°C 69% Calm Calm -- 30.08 in1018.6 mb - 0.00 in0.0 mm 0.00 in0.0 mm
12:50 AM 69.9°F21.1°C 59.6°F15.3°C 70% Calm Calm -- 30.07 in1018.3 mb - 0.00 in0.0 mm 0.00 in0.0 mm
01:00 AM 69.5°F20.8°C 59.7°F15.4°C 71% 1.2 mph NNE1.9 kmh NNE 2.3 mph3.7 kmh 30.07 in1018.3 mb - 0.00 in0.0 mm 0.00 in0.0 mm
01:10 AM 69.2°F20.7°C 59.8°F15.4°C 72% Calm Calm -- 30.07 in1018.3 mb - 0.00 in0.0 mm 0.00 in0.0 mm
01:20 AM 68.8°F20.4°C 59.4°F15.2°C 72% Calm Calm -- 30.07 in1018.3 mb - 0.00 in0.0 mm 0.00 in0.0 mm
01:30 AM 68.5°F20.3°C 58.7°F14.8°C 71% Calm Calm -- 30.07 in1018.3 mb - 0.00 in0.0 mm 0.00 in0.0 mm
01:40 AM 68.2°F20.1°C 59.2°F15.1°C 73% Calm Calm -- 30.07 in1018.3 mb - 0.00 in0.0 mm 0.00 in0.0 mm
01:50 AM 68.0°F20.0°C 59.4°F15.2°C 74% Calm Calm -- 30.06 in1017.9 mb - 0.00 in0.0 mm 0.00 in0.0 mm
02:00 AM 67.8°F19.9°C 59.2°F15.1°C 74% Calm Calm -- 30.06 in1017.9 mb - 0.00 in0.0 mm 0.00 in0.0 mm
02:10 AM 67.7°F19.8°C 59.4°F15.2°C 75% Calm Calm -- 30.06 in1017.9 mb - 0.00 in0.0 mm 0.00 in0.0 mm
02:20 AM 67.4°F19.7°C 59.2°F15.1°C 75% Calm Calm -- 30.06 in1017.9 mb - 0.00 in0.0 mm 0.00 in0.0 mm
02:30 AM 67.0°F19.4°C 58.4°F14.7°C 74% Calm Calm -- 30.06 in1017.9 mb - 0.00 in0.0 mm 0.00 in0.0 mm
02:40 AM 66.8°F19.3°C 58.6°F14.8°C 75% Calm Calm -- 30.06 in1017.9 mb - 0.00 in0.0 mm 0.00 in0.0 mm
02:50 AM 66.5°F19.2°C 58.7°F14.8°C 76% Calm Calm -- 30.05 in1017.6 mb - 0.00 in0.0 mm 0.00 in0.0 mm
03:00 AM 66.3°F19.1°C 58.5°F14.7°C 76% Calm Calm -- 30.05 in1017.6 mb - 0.00 in0.0 mm 0.00 in0.0 mm
03:10 AM 66.0°F18.9°C 58.2°F14.6°C 76% Calm Calm -- 30.05 in1017.6 mb - 0.00 in0.0 mm 0.00 in0.0 mm
03:20 AM 65.6°F18.7°C 57.9°F14.4°C 76% Calm Calm -- 30.05 in1017.6 mb - 0.00 in0.0 mm 0.00 in0.0 mm
03:30 AM 65.4°F18.6°C 57.6°F14.2°C 76% Calm Calm -- 30.05 in1017.6 mb - 0.00 in0.0 mm 0.00 in0.0 mm
03:40 AM 65.1°F18.4°C 57.3°F14.1°C 76% Calm Calm -- 30.05 in1017.6 mb - 0.00 in0.0 mm 0.00 in0.0 mm
03:50 AM 64.7°F18.2°C 57.0°F13.9°C 76% Calm Calm -- 30.05 in1017.6 mb - 0.00 in0.0 mm 0.00 in0.0 mm
04:00 AM 64.5°F18.1°C 56.8°F13.8°C 76% Calm Calm -- 30.05 in1017.6 mb - 0.00 in0.0 mm 0.00 in0.0 mm
04:10 AM 64.1°F17.8°C 56.4°F13.6°C 76% Calm Calm -- 30.06 in1017.9 mb - 0.00 in0.0 mm 0.00 in0.0 mm
04:20 AM 63.8°F17.7°C 56.1°F13.4°C 76% Calm Calm -- 30.06 in1017.9 mb - 0.00 in0.0 mm 0.00 in0.0 mm
04:30 AM 63.5°F17.5°C 56.2°F13.4°C 77% Calm Calm -- 30.06 in1017.9 mb - 0.00 in0.0 mm 0.00 in0.0 mm
04:40 AM 63.3°F17.4°C 56.0°F13.3°C 77% Calm Calm -- 30.06 in1017.9 mb - 0.00 in0.0 mm 0.00 in0.0 mm
04:50 AM 63.0°F17.2°C 56.0°F13.3°C 78% Calm Calm -- 30.06 in1017.9 mb - 0.00 in0.0 mm 0.00 in0.0 mm
05:00 AM 62.7°F17.1°C 56.1°F13.4°C 79% Calm Calm -- 30.06 in1017.9 mb - 0.00 in0.0 mm 0.00 in0.0 mm
05:10 AM 62.4°F16.9°C 55.8°F13.2°C 79% Calm Calm -- 30.06 in1017.9 mb - 0.00 in0.0 mm 0.00 in0.0 mm
05:20 AM 62.2°F16.8°C 56.0°F13.3°C 80% Calm Calm -- 30.06 in1017.9 mb - 0.00 in0.0 mm 0.00 in0.0 mm
05:30 AM 62.2°F16.8°C 56.3°F13.5°C 81% Calm Calm -- 30.06 in1017.9 mb - 0.00 in0.0 mm 0.00 in0.0 mm
05:40 AM 62.6°F17.0°C 57.4°F14.1°C 83% Calm Calm -- 30.06 in1017.9 mb - 0.00 in0.0 mm 0.00 in0.0 mm
05:50 AM 63.3°F17.4°C 58.7°F14.8°C 85% Calm Calm -- 30.06 in1017.9 mb - 0.00 in0.0 mm 0.00 in0.0 mm
06:00 AM 64.0°F17.8°C 59.4°F15.2°C 85% Calm Calm -- 30.07 in1018.3 mb - 0.00 in0.0 mm 0.00 in0.0 mm
06:10 AM 65.1°F18.4°C 60.8°F16.0°C 86% Calm Calm -- 30.07 in1018.3 mb - 0.00 in0.0 mm 0.00 in0.0 mm
06:20 AM 66.9°F19.4°C 62.5°F16.9°C 86% Calm Calm -- 30.07 in1018.3 mb - 0.00 in0.0 mm 0.00 in0.0 mm
06:30 AM 68.6°F20.3°C 63.9°F17.7°C 85% Calm Calm -- 30.07 in1018.3 mb - 0.00 in0.0 mm 0.00 in0.0 mm
06:40 AM 70.5°F21.4°C 64.0°F17.8°C 80% Calm Calm -- 30.07 in1018.3 mb - 0.00 in0.0 mm 0.00 in0.0 mm
06:50 AM 72.4°F22.4°C 64.4°F18.0°C 76% Calm Calm -- 30.07 in1018.3 mb - 0.00 in0.0 mm 0.00 in0.0 mm
07:00 AM 75.0°F23.9°C 62.8°F17.1°C 66% Calm Calm -- 30.07 in1018.3 mb - 0.00 in0.0 mm 0.00 in0.0 mm
07:10 AM 76.4°F24.7°C 61.9°F16.6°C 61% Calm Calm -- 30.08 in1018.6 mb - 0.00 in0.0 mm 0.00 in0.0 mm
07:20 AM 77.3°F25.2°C 62.3°F16.8°C 60% Calm Calm -- 30.08 in1018.6 mb - 0.00 in0.0 mm 0.00 in0.0 mm
07:30 AM 78.0°F25.6°C 61.5°F16.4°C 57% Calm Calm -- 30.08 in1018.6 mb - 0.00 in0.0 mm 0.00 in0.0 mm
07:40 AM 79.2°F26.2°C 61.2°F16.2°C 54% 2.3 mph N3.7 kmh N 3.5 mph5.6 kmh 30.07 in1018.3 mb - 0.00 in0.0 mm 0.00 in0.0 mm
07:50 AM 80.2°F26.8°C 63.1°F17.3°C 56% 1.2 mph N1.9 kmh N 3.5 mph5.6 kmh 30.08 in1018.6 mb - 0.00 in0.0 mm 0.00 in0.0 mm
08:00 AM 81.4°F27.4°C 63.2°F17.3°C 54% 1.2 mph NE1.9 kmh NE 3.5 mph5.6 kmh 30.07 in1018.3 mb - 0.00 in0.0 mm 0.00 in0.0 mm
08:10 AM 82.7°F28.2°C 63.8°F17.7°C 53% 2.3 mph NE3.7 kmh NE 2.3 mph3.7 kmh 30.07 in1018.3 mb - 0.00 in0.0 mm 0.00 in0.0 mm
08:20 AM 83.9°F28.8°C 62.7°F17.1°C 49% 2.3 mph N3.7 kmh N 4.6 mph7.4 kmh 30.07 in1018.3 mb - 0.00 in0.0 mm 0.00 in0.0 mm
08:30 AM 85.0°F29.4°C 61.9°F16.6°C 46% 2.3 mph N3.7 kmh N 3.5 mph5.6 kmh 30.07 in1018.3 mb - 0.00 in0.0 mm 0.00 in0.0 mm
08:40 AM 86.0°F30.0°C 61.5°F16.4°C 44% 1.2 mph NNW1.9 kmh NNW 3.5 mph5.6 kmh 30.07 in1018.3 mb - 0.00 in0.0 mm 0.00 in0.0 mm
08:50 AM 87.2°F30.7°C 59.9°F15.5°C 40% 1.2 mph NW1.9 kmh NW 3.5 mph5.6 kmh 30.06 in1017.9 mb - 0.00 in0.0 mm 0.00 in0.0 mm
09:00 AM 88.1°F31.2°C 58.6°F14.8°C 37% 4.6 mph NNW7.4 kmh NNW 4.6 mph7.4 kmh 30.06 in1017.9 mb - 0.00 in0.0 mm 0.00 in0.0 mm
09:10 AM 88.5°F31.4°C 58.9°F14.9°C 37% 2.3 mph N3.7 kmh N 3.5 mph5.6 kmh 30.06 in1017.9 mb - 0.00 in0.0 mm 0.00 in0.0 mm
09:20 AM 89.1°F31.7°C 57.1°F13.9°C 34% 5.8 mph NNW9.3 kmh NNW 9.2 mph14.8 kmh 30.05 in1017.6 mb - 0.00 in0.0 mm 0.00 in0.0 mm
09:30 AM 90.1°F32.3°C 53.5°F11.9°C 29% 5.8 mph NNW9.3 kmh NNW 9.2 mph14.8 kmh 30.05 in1017.6 mb - 0.00 in0.0 mm 0.00 in0.0 mm
09:40 AM 91.3°F32.9°C 63.6°F17.6°C 40% 3.5 mph NE5.6 kmh NE 3.5 mph5.6 kmh 30.05 in1017.6 mb - 0.00 in0.0 mm 0.00 in0.0 mm
09:50 AM 91.9°F33.3°C 64.1°F17.8°C 40% 3.5 mph NE5.6 kmh NE 3.5 mph5.6 kmh 30.05 in1017.6 mb - 0.00 in0.0 mm 0.00 in0.0 mm
10:00 AM 92.3°F33.5°C 65.2°F18.4°C 41% 3.5 mph NE5.6 kmh NE 4.6 mph7.4 kmh 30.04 in1017.3 mb - 0.00 in0.0 mm 0.00 in0.0 mm
10:10 AM 92.1°F33.4°C 67.7°F19.8°C 45% 3.5 mph NE5.6 kmh NE 5.8 mph9.3 kmh 30.05 in1017.6 mb - 0.00 in0.0 mm 0.00 in0.0 mm
10:20 AM 91.3°F32.9°C 66.9°F19.4°C 45% 4.6 mph ENE7.4 kmh ENE 8.1 mph13.0 kmh 30.05 in1017.6 mb - 0.00 in0.0 mm 0.00 in0.0 mm
10:30 AM 90.3°F32.4°C 64.8°F18.2°C 43% 5.8 mph NNE9.3 kmh NNE 6.9 mph11.1 kmh 30.05 in1017.6 mb - 0.00 in0.0 mm 0.00 in0.0 mm
10:40 AM 89.1°F31.7°C 61.7°F16.5°C 40% 5.8 mph NE9.3 kmh NE 8.1 mph13.0 kmh 30.05 in1017.6 mb - 0.00 in0.0 mm 0.00 in0.0 mm
10:50 AM 89.0°F31.7°C 60.1°F15.6°C 38% 4.6 mph NE7.4 kmh NE 6.9 mph11.1 kmh 30.04 in1017.3 mb - 0.00 in0.0 mm 0.00 in0.0 mm
11:00 AM 89.0°F31.7°C 59.4°F15.2°C 37% 5.8 mph NNE9.3 kmh NNE 11.5 mph18.5 kmh 30.04 in1017.3 mb - 0.00 in0.0 mm 0.00 in0.0 mm
11:10 AM 89.6°F32.0°C 59.8°F15.4°C 37% 5.8 mph NE9.3 kmh NE 9.2 mph14.8 kmh 30.04 in1017.3 mb - 0.00 in0.0 mm 0.00 in0.0 mm
11:20 AM 90.1°F32.3°C 58.0°F14.4°C 34% 6.9 mph NE11.1 kmh NE 10.4 mph16.7 kmh 30.04 in1017.3 mb - 0.00 in0.0 mm 0.00 in0.0 mm
11:30 AM 90.7°F32.6°C 56.8°F13.8°C 32% 5.8 mph NE9.3 kmh NE 10.4 mph16.7 kmh 30.04 in1017.3 mb - 0.00 in0.0 mm 0.00 in0.0 mm
11:40 AM 90.8°F32.7°C 57.7°F14.3°C 33% 5.8 mph NE9.3 kmh NE 6.9 mph11.1 kmh 30.03 in1016.9 mb - 0.00 in0.0 mm 0.00 in0.0 mm
11:50 AM 91.2°F32.9°C 58.1°F14.5°C 33% 4.6 mph NE7.4 kmh NE 10.4 mph16.7 kmh 30.03 in1016.9 mb - 0.00 in0.0 mm 0.00 in0.0 mm
12:00 PM 91.4°F33.0°C 56.5°F13.6°C 31% 6.9 mph NE11.1 kmh NE 11.5 mph18.5 kmh 30.03 in1016.9 mb - 0.00 in0.0 mm 0.00 in0.0 mm
12:10 PM 90.8°F32.7°C 54.2°F12.3°C 29% 9.2 mph NE14.8 kmh NE 12.7 mph20.4 kmh 30.02 in1016.6 mb - 0.00 in0.0 mm 0.00 in0.0 mm
12:20 PM 90.7°F32.6°C 53.1°F11.7°C 28% 8.1 mph NE13.0 kmh NE 11.5 mph18.5 kmh 30.02 in1016.6 mb - 0.00 in0.0 mm 0.00 in0.0 mm
12:30 PM 91.4°F33.0°C 54.7°F12.6°C 29% 5.8 mph NNE9.3 kmh NNE 8.1 mph13.0 kmh 30.02 in1016.6 mb - 0.00 in0.0 mm 0.00 in0.0 mm
12:40 PM 91.7°F33.2°C 53.0°F11.7°C 27% 8.1 mph E13.0 kmh E 3.5 mph5.6 kmh 30.02 in1016.6 mb - 0.00 in0.0 mm 0.00 in0.0 mm
01:00 PM 91.6°F33.1°C 47.4°F8.6°C 22% 6.9 mph NE11.1 kmh NE 11.5 mph18.5 kmh 30.01 in1016.3 mb - 0.00 in0.0 mm 0.00 in0.0 mm
01:10 PM 91.8°F33.2°C 48.7°F9.3°C 23% 5.8 mph NE9.3 kmh NE 9.2 mph14.8 kmh 30.01 in1016.3 mb - 0.00 in0.0 mm 0.00 in0.0 mm
01:20 PM 92.2°F33.4°C 46.6°F8.1°C 21% 6.9 mph NNE11.1 kmh NNE 11.5 mph18.5 kmh 30.00 in1015.9 mb - 0.00 in0.0 mm 0.00 in0.0 mm
01:30 PM 92.5°F33.6°C 45.6°F7.6°C 20% 6.9 mph NNE11.1 kmh NNE 9.2 mph14.8 kmh 30.00 in1015.9 mb - 0.00 in0.0 mm 0.00 in0.0 mm
01:40 PM 92.5°F33.6°C 45.6°F7.6°C 20% 6.9 mph NNE11.1 kmh NNE 9.2 mph14.8 kmh 30.00 in1015.9 mb - 0.00 in0.0 mm 0.00 in0.0 mm
01:50 PM 92.6°F33.7°C 45.7°F7.6°C 20% 6.9 mph NE11.1 kmh NE 9.2 mph14.8 kmh 29.99 in1015.6 mb - 0.00 in0.0 mm 0.00 in0.0 mm
02:00 PM 92.7°F33.7°C 47.0°F8.3°C 21% 6.9 mph NNE11.1 kmh NNE 9.2 mph14.8 kmh 29.99 in1015.6 mb - 0.00 in0.0 mm 0.00 in0.0 mm
02:10 PM 92.0°F33.3°C 46.5°F8.1°C 21% 8.1 mph NE13.0 kmh NE 11.5 mph18.5 kmh 29.98 in1015.2 mb - 0.00 in0.0 mm 0.00 in0.0 mm
02:20 PM 91.7°F33.2°C 47.5°F8.6°C 22% 6.9 mph N11.1 kmh N 15.0 mph24.1 kmh 29.98 in1015.2 mb - 0.00 in0.0 mm 0.00 in0.0 mm
02:30 PM 91.7°F33.2°C 47.5°F8.6°C 22% 6.9 mph NNE11.1 kmh NNE 9.2 mph14.8 kmh 29.97 in1014.9 mb - 0.00 in0.0 mm 0.00 in0.0 mm
02:40 PM 91.8°F33.2°C 47.5°F8.6°C 22% 6.9 mph N11.1 kmh N 11.5 mph18.5 kmh 29.97 in1014.9 mb - 0.00 in0.0 mm 0.00 in0.0 mm
02:50 PM 91.3°F32.9°C 47.1°F8.4°C 22% 8.1 mph NE13.0 kmh NE 12.7 mph20.4 kmh 29.97 in1014.9 mb - 0.00 in0.0 mm 0.00 in0.0 mm
03:00 PM 90.9°F32.7°C 46.8°F8.2°C 22% 9.2 mph N14.8 kmh N 13.8 mph22.2 kmh 29.97 in1014.9 mb - 0.00 in0.0 mm 0.00 in0.0 mm
03:10 PM 90.9°F32.7°C 48.0°F8.9°C 23% 8.1 mph NNE13.0 kmh NNE 10.4 mph16.7 kmh 29.96 in1014.6 mb - 0.00 in0.0 mm 0.00 in0.0 mm
03:20 PM 90.5°F32.5°C 46.4°F8.0°C 22% 8.1 mph N13.0 kmh N 13.8 mph22.2 kmh 29.96 in1014.6 mb - 0.00 in0.0 mm 0.00 in0.0 mm
03:30 PM 90.1°F32.3°C 47.3°F8.5°C 23% 8.1 mph N13.0 kmh N 13.8 mph22.2 kmh 29.96 in1014.6 mb - 0.00 in0.0 mm 0.00 in0.0 mm
03:40 PM 89.9°F32.2°C 48.3°F9.1°C 24% 9.2 mph NE14.8 kmh NE 11.5 mph18.5 kmh 29.96 in1014.6 mb - 0.00 in0.0 mm 0.00 in0.0 mm
03:50 PM 89.6°F32.0°C 50.2°F10.1°C 26% 5.8 mph NE9.3 kmh NE 10.4 mph16.7 kmh 29.96 in1014.6 mb - 0.00 in0.0 mm 0.00 in0.0 mm
04:00 PM 89.4°F31.9°C 53.9°F12.2°C 30% 6.9 mph NE11.1 kmh NE 10.4 mph16.7 kmh 29.96 in1014.6 mb - 0.00 in0.0 mm 0.00 in0.0 mm
04:10 PM 89.0°F31.7°C 55.3°F12.9°C 32% 5.8 mph NE9.3 kmh NE 6.9 mph11.1 kmh 29.96 in1014.6 mb - 0.00 in0.0 mm 0.00 in0.0 mm
04:20 PM 88.7°F31.5°C 53.3°F11.8°C 30% 5.8 mph NE9.3 kmh NE 10.4 mph16.7 kmh 29.95 in1014.2 mb - 0.00 in0.0 mm 0.00 in0.0 mm
05:00 PM 87.2°F30.7°C 57.0°F13.9°C 36% 5.8 mph E9.3 kmh E 8.1 mph13.0 kmh 29.95 in1014.2 mb - 0.00 in0.0 mm 0.00 in0.0 mm
05:10 PM 86.5°F30.3°C 55.6°F13.1°C 35% 5.8 mph E9.3 kmh E 10.4 mph16.7 kmh 29.96 in1014.6 mb - 0.00 in0.0 mm 0.00 in0.0 mm
05:20 PM 85.4°F29.7°C 55.4°F13.0°C 36% 3.5 mph E5.6 kmh E 11.5 mph18.5 kmh 29.96 in1014.6 mb - 0.00 in0.0 mm 0.00 in0.0 mm
05:30 PM 84.4°F29.1°C 55.3°F12.9°C 37% 4.6 mph E7.4 kmh E 4.6 mph7.4 kmh 29.96 in1014.6 mb - 0.00 in0.0 mm 0.00 in0.0 mm
05:40 PM 83.5°F28.6°C 55.2°F12.9°C 38% 3.5 mph E5.6 kmh E 9.2 mph14.8 kmh 29.96 in1014.6 mb - 0.00 in0.0 mm 0.00 in0.0 mm
05:50 PM 82.7°F28.2°C 53.0°F11.7°C 36% 4.6 mph E7.4 kmh E 5.8 mph9.3 kmh 29.96 in1014.6 mb - 0.00 in0.0 mm 0.00 in0.0 mm
06:00 PM 81.7°F27.6°C 52.1°F11.2°C 36% 5.8 mph E9.3 kmh E 8.1 mph13.0 kmh 29.96 in1014.6 mb - 0.00 in0.0 mm 0.00 in0.0 mm
06:10 PM 80.5°F26.9°C 51.0°F10.6°C 36% 4.6 mph E7.4 kmh E 9.2 mph14.8 kmh 29.96 in1014.6 mb - 0.00 in0.0 mm 0.00 in0.0 mm
06:20 PM 79.6°F26.4°C 51.8°F11.0°C 38% 3.5 mph E5.6 kmh E 6.9 mph11.1 kmh 29.96 in1014.6 mb - 0.00 in0.0 mm 0.00 in0.0 mm
06:30 PM 78.6°F25.9°C 53.6°F12.0°C 42% 4.6 mph E7.4 kmh E 8.1 mph13.0 kmh 29.97 in1014.9 mb - 0.00 in0.0 mm 0.00 in0.0 mm
06:40 PM 77.5°F25.3°C 55.1°F12.8°C 46% 3.5 mph E5.6 kmh E 5.8 mph9.3 kmh 29.97 in1014.9 mb - 0.00 in0.0 mm 0.00 in0.0 mm
06:50 PM 76.2°F24.6°C 54.5°F12.5°C 47% 3.5 mph E5.6 kmh E 4.6 mph7.4 kmh 29.97 in1014.9 mb - 0.00 in0.0 mm 0.00 in0.0 mm
07:00 PM 75.0°F23.9°C 54.6°F12.6°C 49% 5.8 mph E9.3 kmh E 9.2 mph14.8 kmh 29.97 in1014.9 mb - 0.00 in0.0 mm 0.00 in0.0 mm
07:10 PM 74.1°F23.4°C 53.7°F12.1°C 49% 4.6 mph E7.4 kmh E 8.1 mph13.0 kmh 29.97 in1014.9 mb - 0.00 in0.0 mm 0.00 in0.0 mm
07:20 PM 73.2°F22.9°C 54.0°F12.2°C 51% Calm Calm -- 29.97 in1014.9 mb - 0.00 in0.0 mm 0.00 in0.0 mm
07:30 PM 72.5°F22.5°C 53.9°F12.2°C 52% Calm Calm -- 29.97 in1014.9 mb - 0.00 in0.0 mm 0.00 in0.0 mm
07:40 PM 71.9°F22.2°C 54.9°F12.7°C 55% 3.5 mph ESE5.6 kmh ESE 3.5 mph5.6 kmh 29.97 in1014.9 mb - 0.00 in0.0 mm 0.00 in0.0 mm
07:50 PM 71.2°F21.8°C 55.7°F13.2°C 58% 4.6 mph E7.4 kmh E 5.8 mph9.3 kmh 29.97 in1014.9 mb - 0.00 in0.0 mm 0.00 in0.0 mm
08:00 PM 70.5°F21.4°C 56.4°F13.6°C 61% 2.3 mph E3.7 kmh E 6.9 mph11.1 kmh 29.98 in1015.2 mb - 0.00 in0.0 mm 0.00 in0.0 mm
08:10 PM 69.8°F21.0°C 56.7°F13.7°C 63% 2.3 mph E3.7 kmh E 6.9 mph11.1 kmh 29.98 in1015.2 mb - 0.00 in0.0 mm 0.00 in0.0 mm
08:20 PM 69.3°F20.7°C 57.0°F13.9°C 65% 3.5 mph E5.6 kmh E 9.2 mph14.8 kmh 29.98 in1015.2 mb - 0.00 in0.0 mm 0.00 in0.0 mm
08:30 PM 68.8°F20.4°C 57.4°F14.1°C 67% 4.6 mph ENE7.4 kmh ENE 5.8 mph9.3 kmh 29.98 in1015.2 mb - 0.00 in0.0 mm 0.00 in0.0 mm
08:40 PM 68.4°F20.2°C 57.4°F14.1°C 68% Calm Calm -- 29.98 in1015.2 mb - 0.00 in0.0 mm 0.00 in0.0 mm
08:50 PM 68.0°F20.0°C 57.4°F14.1°C 69% Calm Calm -- 29.98 in1015.2 mb - 0.00 in0.0 mm 0.00 in0.0 mm
09:00 PM 67.6°F19.8°C 57.5°F14.2°C 70% Calm Calm -- 29.99 in1015.6 mb - 0.00 in0.0 mm 0.00 in0.0 mm
09:10 PM 67.3°F19.6°C 57.2°F14.0°C 70% Calm Calm -- 29.99 in1015.6 mb - 0.00 in0.0 mm 0.00 in0.0 mm
09:20 PM 66.9°F19.4°C 57.2°F14.0°C 71% Calm Calm -- 29.99 in1015.6 mb - 0.00 in0.0 mm 0.00 in0.0 mm
09:30 PM 66.6°F19.2°C 57.3°F14.1°C 72% Calm Calm -- 29.99 in1015.6 mb - 0.00 in0.0 mm 0.00 in0.0 mm
09:40 PM 66.3°F19.1°C 57.4°F14.1°C 73% Calm Calm -- 29.99 in1015.6 mb - 0.00 in0.0 mm 0.00 in0.0 mm
09:50 PM 65.9°F18.8°C 57.4°F14.1°C 74% Calm Calm -- 29.98 in1015.2 mb - 0.00 in0.0 mm 0.00 in0.0 mm
10:00 PM 65.6°F18.7°C 56.7°F13.7°C 73% Calm Calm -- 29.98 in1015.2 mb - 0.00 in0.0 mm 0.00 in0.0 mm
10:10 PM 65.2°F18.4°C 56.7°F13.7°C 74% Calm Calm -- 29.98 in1015.2 mb - 0.00 in0.0 mm 0.00 in0.0 mm
10:20 PM 64.8°F18.2°C 56.3°F13.5°C 74% Calm Calm -- 29.98 in1015.2 mb - 0.00 in0.0 mm 0.00 in0.0 mm
10:30 PM 64.4°F18.0°C 55.9°F13.3°C 74% Calm Calm -- 29.98 in1015.2 mb - 0.00 in0.0 mm 0.00 in0.0 mm
10:40 PM 64.0°F17.8°C 56.0°F13.3°C 75% Calm Calm -- 29.98 in1015.2 mb - 0.00 in0.0 mm 0.00 in0.0 mm
10:50 PM 63.7°F17.6°C 56.0°F13.3°C 76% Calm Calm -- 29.97 in1014.9 mb - 0.00 in0.0 mm 0.00 in0.0 mm
11:00 PM 63.4°F17.4°C 56.1°F13.4°C 77% Calm Calm -- 29.97 in1014.9 mb - 0.00 in0.0 mm 0.00 in0.0 mm
11:10 PM 63.1°F17.3°C 55.8°F13.2°C 77% Calm Calm -- 29.97 in1014.9 mb - 0.00 in0.0 mm 0.00 in0.0 mm
11:20 PM 62.8°F17.1°C 55.8°F13.2°C 78% Calm Calm -- 29.97 in1014.9 mb - 0.00 in0.0 mm 0.00 in0.0 mm
11:30 PM 62.6°F17.0°C 56.3°F13.5°C 80% Calm Calm -- 29.97 in1014.9 mb - 0.00 in0.0 mm 0.00 in0.0 mm
11:40 PM 62.5°F16.9°C 56.2°F13.4°C 80% Calm Calm -- 29.97 in1014.9 mb - 0.00 in0.0 mm 0.00 in0.0 mm
11:50 PM 62.4°F16.9°C 56.5°F13.6°C 81% Calm Calm -- 29.96 in1014.6 mb - 0.00 in0.0 mm 0.00 in0.0 mm